Terminal Aerodrome Forecast
Issued by NWS Jackson, MS

Home | Current Version | Previous Version | Text Only | Print | Product List | Glossary On
Versions: 1 2 3 4 5 6 7 8 9 10 11 12 13 14 15
000
FTUS44 KJAN 300540
TAFMEI
TAF
KMEI 300540Z 3006/3106 20004KT P6SM SCT035 BKN120
     FM301500 23005KT P6SM -SHRA OVC050
     FM310000 17003KT P6SM OVC100=

USA.gov is the U.S. government's official web portal to all federal, state and local government web resources and services.